sensor_id;sensor_type;location;lat;lon;timestamp;pressure;altitude;pressure_sealevel;temperature;humidity
24306;BME280;12423;48.768;8.850;2023-05-23T21:28:05;97295.75;;;14.49;100.00
24306;BME280;12423;48.768;8.850;2023-05-23T21:30:07;97297.88;;;14.45;100.00
24306;BME280;12423;48.768;8.850;2023-05-23T21:32:08;97296.56;;;14.49;100.00
24306;BME280;12423;48.768;8.850;2023-05-23T21:34:22;97289.09;;;14.43;100.00
24306;BME280;12423;48.768;8.850;2023-05-23T21:36:23;97288.13;;;14.44;100.00
24306;BME280;12423;48.768;8.850;2023-05-23T21:39:21;97284.91;;;14.41;100.00
24306;BME280;12423;48.768;8.850;2023-05-23T21:41:22;97285.56;;;14.43;100.00
24306;BME280;12423;48.768;8.850;2023-05-23T21:43:25;97284.66;;;14.34;100.00
24306;BME280;12423;48.768;8.850;2023-05-23T21:45:26;97281.81;;;14.35;100.00
24306;BME280;12423;48.768;8.850;2023-05-23T21:47:27;97277.50;;;14.43;100.00
24306;BME280;12423;48.768;8.850;2023-05-23T21:49:28;97272.28;;;14.41;100.00
24306;BME280;12423;48.768;8.850;2023-05-23T21:51:32;97274.44;;;14.37;100.00
24306;BME280;12423;48.768;8.850;2023-05-23T21:53:33;97280.06;;;14.44;100.00
24306;BME280;12423;48.768;8.850;2023-05-23T21:55:34;97278.09;;;14.36;100.00
24306;BME280;12423;48.768;8.850;2023-05-23T21:57:35;97280.78;;;14.36;100.00
24306;BME280;12423;48.768;8.850;2023-05-23T21:59:36;97285.34;;;14.36;100.00
24306;BME280;12423;48.768;8.850;2023-05-23T22:01:37;97285.78;;;14.31;100.00
24306;BME280;12423;48.768;8.850;2023-05-23T22:03:38;97279.56;;;14.31;100.00
24306;BME280;12423;48.768;8.850;2023-05-23T22:05:39;97292.00;;;14.32;100.00
24306;BME280;12423;48.768;8.850;2023-05-23T22:07:40;97280.69;;;14.28;100.00
24306;BME280;12423;48.768;8.850;2023-05-23T22:09:41;97287.63;;;14.31;100.00
24306;BME280;12423;48.768;8.850;2023-05-23T22:11:42;97286.13;;;14.18;100.00
24306;BME280;12423;48.768;8.850;2023-05-23T22:13:44;97292.91;;;14.23;100.00
24306;BME280;12423;48.768;8.850;2023-05-23T22:15:45;97295.63;;;14.13;100.00
24306;BME280;12423;48.768;8.850;2023-05-23T22:17:46;97295.13;;;13.99;100.00
24306;BME280;12423;48.768;8.850;2023-05-23T22:19:47;97293.56;;;13.97;100.00
24306;BME280;12423;48.768;8.850;2023-05-23T22:21:48;97297.25;;;13.96;100.00
24306;BME280;12423;48.768;8.850;2023-05-23T22:23:49;97295.28;;;13.98;100.00
24306;BME280;12423;48.768;8.850;2023-05-23T22:25:50;97299.22;;;13.94;100.00
24306;BME280;12423;48.768;8.850;2023-05-23T22:27:51;97299.22;;;13.94;100.00
24306;BME280;12423;48.768;8.850;2023-05-23T22:29:52;97293.84;;;13.94;100.00
24306;BME280;12423;48.768;8.850;2023-05-23T22:31:53;97304.47;;;13.86;100.00
24306;BME280;12423;48.768;8.850;2023-05-23T22:33:55;97301.94;;;13.84;100.00
24306;BME280;12423;48.768;8.850;2023-05-23T22:35:56;97305.78;;;13.81;100.00
24306;BME280;12423;48.768;8.850;2023-05-23T22:37:57;97314.25;;;13.87;100.00
24306;BME280;12423;48.768;8.850;2023-05-23T22:39:58;97301.81;;;13.76;100.00
24306;BME280;12423;48.768;8.850;2023-05-23T22:41:59;97304.06;;;13.80;100.00
24306;BME280;12423;48.768;8.850;2023-05-23T22:44:00;97300.69;;;13.78;100.00
24306;BME280;12423;48.768;8.850;2023-05-23T22:46:01;97310.47;;;13.70;100.00
24306;BME280;12423;48.768;8.850;2023-05-23T22:48:02;97308.06;;;13.76;100.00
24306;BME280;12423;48.768;8.850;2023-05-23T22:50:05;97303.97;;;13.72;100.00
24306;BME280;12423;48.768;8.850;2023-05-23T22:52:06;97305.81;;;13.72;100.00
24306;BME280;12423;48.768;8.850;2023-05-23T22:54:08;97305.84;;;13.52;100.00
24306;BME280;12423;48.768;8.850;2023-05-23T22:56:09;97309.94;;;13.56;100.00
24306;BME280;12423;48.768;8.850;2023-05-23T22:58:10;97298.47;;;13.64;100.00
24306;BME280;12423;48.768;8.850;2023-05-23T23:00:13;97297.50;;;13.65;100.00
24306;BME280;12423;48.768;8.850;2023-05-23T23:02:14;97302.16;;;13.63;100.00
24306;BME280;12423;48.768;8.850;2023-05-23T23:04:15;97300.31;;;13.63;100.00
24306;BME280;12423;48.768;8.850;2023-05-23T23:06:16;97299.59;;;13.71;100.00
24306;BME280;12423;48.768;8.850;2023-05-23T23:08:17;97298.19;;;13.67;100.00
24306;BME280;12423;48.768;8.850;2023-05-23T23:10:19;97299.88;;;13.68;100.00
24306;BME280;12423;48.768;8.850;2023-05-23T23:12:20;97297.50;;;13.65;100.00
24306;BME280;12423;48.768;8.850;2023-05-23T23:14:21;97302.75;;;13.57;100.00
24306;BME280;12423;48.768;8.850;2023-05-23T23:16:22;97289.59;;;13.54;100.00
24306;BME280;12423;48.768;8.850;2023-05-23T23:18:24;97287.19;;;13.51;100.00
24306;BME280;12423;48.768;8.850;2023-05-23T23:20:26;97289.47;;;13.45;100.00
24306;BME280;12423;48.768;8.850;2023-05-23T23:22:27;97288.66;;;13.35;100.00
24306;BME280;12423;48.768;8.850;2023-05-23T23:24:28;97293.00;;;13.36;100.00
24306;BME280;12423;48.768;8.850;2023-05-23T23:26:29;97281.03;;;13.40;100.00
24306;BME280;12423;48.768;8.850;2023-05-23T23:28:30;97286.25;;;13.32;100.00
24306;BME280;12423;48.768;8.850;2023-05-23T23:30:31;97283.56;;;13.32;100.00
24306;BME280;12423;48.768;8.850;2023-05-23T23:32:32;97281.84;;;13.31;100.00
24306;BME280;12423;48.768;8.850;2023-05-23T23:34:33;97288.94;;;13.32;100.00
24306;BME280;12423;48.768;8.850;2023-05-23T23:36:34;97289.75;;;13.23;100.00
24306;BME280;12423;48.768;8.850;2023-05-23T23:38:39;97290.75;;;13.22;100.00
24306;BME280;12423;48.768;8.850;2023-05-23T23:40:40;97277.63;;;13.19;100.00
24306;BME280;12423;48.768;8.850;2023-05-23T23:42:44;97279.63;;;13.17;100.00
24306;BME280;12423;48.768;8.850;2023-05-23T23:44:46;97282.16;;;13.08;100.00
24306;BME280;12423;48.768;8.850;2023-05-23T23:46:47;97284.25;;;13.05;100.00
24306;BME280;12423;48.768;8.850;2023-05-23T23:48:47;97271.44;;;12.99;100.00
24306;BME280;12423;48.768;8.850;2023-05-23T23:50:48;97278.47;;;13.00;100.00
24306;BME280;12423;48.768;8.850;2023-05-23T23:52:49;97271.28;;;13.00;100.00
24306;BME280;12423;48.768;8.850;2023-05-23T23:54:50;97266.34;;;13.05;100.00
24306;BME280;12423;48.768;8.850;2023-05-23T23:56:51;97271.56;;;12.97;100.00
24306;BME280;12423;48.768;8.850;2023-05-23T23:58:52;97268.75;;;12.99;100.00
